createdAt,value
2022-08-23T00:01:51.976Z,7.15
2022-08-23T00:04:36.946Z,7.88
2022-08-23T00:07:07.418Z,6.10
2022-08-23T00:09:34.810Z,5.93
2022-08-23T00:12:16.197Z,5.22
2022-08-23T00:14:54.771Z,6.47
2022-08-23T00:17:34.065Z,5.70
2022-08-23T00:20:04.669Z,7.03
2022-08-23T00:22:31.361Z,6.50
2022-08-23T00:24:58.025Z,6.38
2022-08-23T00:27:24.746Z,5.07
2022-08-23T00:29:54.636Z,6.13
2022-08-23T00:32:30.780Z,6.20
2022-08-23T00:34:59.660Z,5.40
2022-08-23T00:37:28.628Z,5.68
2022-08-23T00:39:55.640Z,5.82
2022-08-23T00:43:11.410Z,5.55
2022-08-23T00:46:21.539Z,5.13
2022-08-23T00:48:48.771Z,5.32
2022-08-23T00:51:46.902Z,5.75
2022-08-23T00:54:22.513Z,5.03
2022-08-23T00:56:51.006Z,6.72
2022-08-23T00:59:18.386Z,6.55
2022-08-23T01:01:45.466Z,4.95
2022-08-23T01:04:13.653Z,5.40
2022-08-23T01:07:07.716Z,7.78
2022-08-23T01:09:34.462Z,4.15
2022-08-23T01:12:07.065Z,5.22
2022-08-23T01:14:40.661Z,5.78
2022-08-23T01:17:11.045Z,8.05
2022-08-23T01:19:41.377Z,6.05
2022-08-23T01:22:23.846Z,6.75
2022-08-23T01:25:05.879Z,7.13
2022-08-23T01:27:33.762Z,6.93
2022-08-23T01:30:00.437Z,7.47
2022-08-23T01:32:27.409Z,7.47
2022-08-23T01:34:54.172Z,7.78
2022-08-23T01:37:22.130Z,8.35
2022-08-23T01:39:48.886Z,6.43
2022-08-23T01:42:15.747Z,7.85
2022-08-23T01:44:42.566Z,6.35
2022-08-23T01:47:09.449Z,9.40
2022-08-23T01:49:36.529Z,6.35
2022-08-23T01:52:04.037Z,6.47
2022-08-23T01:54:30.730Z,6.57
2022-08-23T01:56:57.440Z,8.25
2022-08-23T01:59:24.407Z,6.43
2022-08-23T02:01:51.845Z,6.75
2022-08-23T02:04:18.653Z,6.13
2022-08-23T02:06:45.825Z,5.65
2022-08-23T02:09:17.238Z,5.88
2022-08-23T02:11:45.760Z,5.78
2022-08-23T02:14:15.284Z,5.68
2022-08-23T02:16:59.946Z,5.07
2022-08-23T02:19:30.179Z,4.57
2022-08-23T02:21:56.887Z,4.60
2022-08-23T02:24:25.431Z,4.38
2022-08-23T02:26:56.792Z,4.20
2022-08-23T02:29:25.475Z,4.53
2022-08-23T02:31:52.589Z,3.85
2022-08-23T02:34:20.348Z,4.00
2022-08-23T02:36:47.821Z,3.22
2022-08-23T02:39:16.632Z,4.53
2022-08-23T02:41:43.443Z,4.10
2022-08-23T02:44:11.164Z,3.50
2022-08-23T02:46:39.014Z,4.75
2022-08-23T02:49:06.472Z,5.60
2022-08-23T02:51:34.539Z,3.95
2022-08-23T02:54:01.561Z,4.82
2022-08-23T02:56:28.335Z,4.63
2022-08-23T02:58:55.133Z,4.45
2022-08-23T03:01:28.824Z,4.13
2022-08-23T03:03:56.581Z,4.30
2022-08-23T03:06:25.524Z,4.25
2022-08-23T03:08:54.396Z,4.93
2022-08-23T03:11:22.804Z,3.53
2022-08-23T03:13:51.013Z,4.22
2022-08-23T03:16:19.262Z,3.75
2022-08-23T03:18:46.869Z,3.28
2022-08-23T03:21:14.277Z,3.38
2022-08-23T03:23:41.124Z,4.53
2022-08-23T03:26:10.742Z,4.22
2022-08-23T03:28:40.034Z,3.35
2022-08-23T03:31:08.454Z,3.63
2022-08-23T03:33:35.917Z,2.85
2022-08-23T03:36:06.594Z,3.10
2022-08-23T03:38:34.375Z,3.05
2022-08-23T03:41:01.576Z,4.32
2022-08-23T03:43:28.991Z,3.03
2022-08-23T03:45:56.133Z,3.90
2022-08-23T03:48:22.853Z,4.38
2022-08-23T03:50:49.496Z,4.07
2022-08-23T03:53:16.797Z,3.67
2022-08-23T03:55:44.385Z,3.40
2022-08-23T03:58:12.033Z,3.17
2022-08-23T04:00:39.174Z,4.97
2022-08-23T04:03:06.030Z,4.70
2022-08-23T04:05:32.846Z,4.68
2022-08-23T04:08:01.982Z,3.17
2022-08-23T04:10:28.943Z,3.97
2022-08-23T04:12:55.639Z,3.90
2022-08-23T04:15:23.414Z,3.50
2022-08-23T04:17:50.348Z,4.05
2022-08-23T04:20:17.874Z,4.50
2022-08-23T04:22:45.948Z,4.57
2022-08-23T04:25:34.432Z,3.70
2022-08-23T04:28:00.767Z,4.47
2022-08-23T04:30:28.001Z,4.28
2022-08-23T04:32:55.473Z,3.55
2022-08-23T04:35:22.596Z,4.60
2022-08-23T04:37:49.365Z,2.90
2022-08-23T04:40:34.788Z,2.95
2022-08-23T04:43:02.486Z,2.80
2022-08-23T04:45:32.606Z,3.58
2022-08-23T04:47:59.646Z,3.38
2022-08-23T04:50:26.733Z,3.00
2022-08-23T04:52:53.530Z,4.15
2022-08-23T04:55:20.254Z,4.25
2022-08-23T04:57:46.946Z,3.53
2022-08-23T05:00:14.649Z,3.85
2022-08-23T05:02:41.489Z,4.10
2022-08-23T05:05:11.173Z,4.18
2022-08-23T05:07:42.825Z,4.55
2022-08-23T05:10:13.409Z,4.47
2022-08-23T05:12:40.861Z,4.53
2022-08-23T05:15:09.570Z,3.95
2022-08-23T05:17:37.304Z,6.32
2022-08-23T05:20:08.453Z,5.18
2022-08-23T05:22:36.814Z,7.43
2022-08-23T05:25:04.398Z,7.63
2022-08-23T05:27:31.334Z,5.53
2022-08-23T05:29:58.258Z,6.20
2022-08-23T05:32:25.446Z,5.00
2022-08-23T05:34:52.090Z,5.50
2022-08-23T05:37:18.835Z,5.38
2022-08-23T05:39:45.749Z,6.10
2022-08-23T05:42:16.084Z,5.38
2022-08-23T05:44:44.613Z,6.22
2022-08-23T05:47:17.601Z,5.85
2022-08-23T05:49:53.037Z,5.20
2022-08-23T05:52:19.881Z,5.95
2022-08-23T05:54:46.596Z,5.60
2022-08-23T05:57:13.296Z,5.90
2022-08-23T05:59:42.040Z,5.68
2022-08-23T06:02:09.221Z,6.10
2022-08-23T06:04:36.263Z,6.97
2022-08-23T06:07:03.931Z,6.88
2022-08-23T06:09:30.602Z,5.70
2022-08-23T06:11:58.785Z,4.63
2022-08-23T06:14:25.573Z,5.53
2022-08-23T06:16:56.020Z,5.43
2022-08-23T06:19:24.292Z,4.10
2022-08-23T06:21:52.554Z,5.05
2022-08-23T06:24:20.089Z,5.68
2022-08-23T06:26:47.039Z,5.22
2022-08-23T06:29:16.991Z,7.85
2022-08-23T06:31:47.205Z,5.93
2022-08-23T06:34:27.888Z,10.85
2022-08-23T06:36:57.282Z,6.63
2022-08-23T06:39:26.152Z,6.47
2022-08-23T06:41:53.474Z,6.72
2022-08-23T06:44:20.466Z,7.45
2022-08-23T06:46:48.900Z,6.63
2022-08-23T06:49:16.720Z,6.43
2022-08-23T06:51:49.418Z,7.97
2022-08-23T06:54:19.652Z,5.32
2022-08-23T06:56:46.871Z,6.00
2022-08-23T06:59:14.653Z,4.35
2022-08-23T07:01:49.171Z,6.47
2022-08-23T07:04:19.706Z,4.93
2022-08-23T07:06:46.878Z,5.32
2022-08-23T07:09:14.464Z,5.93
2022-08-23T07:11:41.730Z,5.65
2022-08-23T07:14:15.141Z,4.82
2022-08-23T07:16:53.511Z,5.00
2022-08-23T07:19:23.054Z,6.40
2022-08-23T07:21:56.133Z,5.05
2022-08-23T07:24:23.072Z,5.43
2022-08-23T07:26:52.306Z,4.93
2022-08-23T07:29:20.883Z,6.60
2022-08-23T07:31:50.878Z,6.40
2022-08-23T07:34:18.440Z,5.72
2022-08-23T07:36:47.905Z,6.40
2022-08-23T07:39:15.869Z,4.82
2022-08-23T07:41:43.314Z,3.55
2022-08-23T07:44:11.693Z,3.25
2022-08-23T07:46:43.008Z,3.03
2022-08-23T07:49:11.809Z,2.90
2022-08-23T07:51:42.177Z,3.08
2022-08-23T07:54:10.453Z,4.10
2022-08-23T07:56:37.826Z,4.22
2022-08-23T07:59:05.988Z,3.83
2022-08-23T08:01:33.716Z,4.00
2022-08-23T08:04:03.654Z,3.83
2022-08-23T08:06:35.597Z,3.38
2022-08-23T08:09:04.403Z,3.78
2022-08-23T08:11:35.133Z,3.03
2022-08-23T08:14:06.646Z,2.90
2022-08-23T08:16:36.534Z,2.50
2022-08-23T08:19:07.855Z,2.20
2022-08-23T08:21:35.586Z,2.10
2022-08-23T08:24:03.118Z,2.33
2022-08-23T08:26:29.897Z,3.70
2022-08-23T08:28:56.612Z,2.95
2022-08-23T08:31:24.570Z,2.03
2022-08-23T08:33:51.606Z,3.10
2022-08-23T08:36:39.936Z,3.65
2022-08-23T08:39:10.670Z,2.97
2022-08-23T08:42:05.248Z,3.85
2022-08-23T08:44:47.242Z,2.83
2022-08-23T08:47:23.184Z,3.85
2022-08-23T08:49:58.674Z,3.28
2022-08-23T08:52:32.062Z,4.47
2022-08-23T08:55:25.117Z,3.17
2022-08-23T08:57:55.051Z,3.50
2022-08-23T09:00:26.913Z,2.97
2022-08-23T09:02:55.750Z,2.35
2022-08-23T09:05:27.784Z,2.22
2022-08-23T09:08:09.816Z,2.08
2022-08-23T09:10:45.554Z,1.90
2022-08-23T09:13:46.277Z,2.50
2022-08-23T09:16:34.551Z,2.47
2022-08-23T09:19:08.831Z,2.50
2022-08-23T09:21:49.675Z,3.20
2022-08-23T09:24:19.720Z,3.15
2022-08-23T09:26:57.754Z,2.95
2022-08-23T09:29:31.248Z,2.85
2022-08-23T09:32:04.365Z,3.45
2022-08-23T09:34:38.257Z,2.72
2022-08-23T09:37:09.878Z,2.40
2022-08-23T09:39:55.471Z,2.22
2022-08-23T09:42:42.524Z,1.38
2022-08-23T09:45:35.151Z,1.75
2022-08-23T09:48:03.141Z,2.45
2022-08-23T09:50:42.338Z,1.40
2022-08-23T09:53:11.990Z,1.63
2022-08-23T09:55:48.842Z,1.35
2022-08-23T09:58:53.731Z,1.20
2022-08-23T10:01:28.870Z,1.35
2022-08-23T10:04:17.808Z,1.40
2022-08-23T10:06:46.483Z,1.35
2022-08-23T10:09:42.583Z,1.27
2022-08-23T10:12:09.330Z,1.92
2022-08-23T10:14:37.029Z,1.80
2022-08-23T10:17:19.040Z,2.17
2022-08-23T10:20:15.125Z,1.63
2022-08-23T10:22:59.265Z,1.63
2022-08-23T10:25:59.035Z,1.98
2022-08-23T10:29:25.926Z,2.22
2022-08-23T10:32:06.925Z,1.92
2022-08-23T10:34:34.163Z,1.35
2022-08-23T10:37:15.959Z,1.35
2022-08-23T10:40:03.976Z,1.30
2022-08-23T10:43:07.658Z,1.45
2022-08-23T10:45:39.289Z,1.40
2022-08-23T10:48:37.165Z,1.60
2022-08-23T10:51:31.616Z,1.92
2022-08-23T10:54:07.843Z,1.73
2022-08-23T10:56:51.016Z,1.73
2022-08-23T10:59:25.629Z,1.90
2022-08-23T11:02:04.454Z,1.80
2022-08-23T11:04:34.822Z,1.42
2022-08-23T11:07:14.473Z,1.55
2022-08-23T11:09:52.397Z,1.70
2022-08-23T11:12:21.739Z,2.00
2022-08-23T11:15:02.586Z,1.90
2022-08-23T11:17:52.206Z,1.55
2022-08-23T11:20:49.911Z,1.85
2022-08-23T11:23:30.679Z,1.55
2022-08-23T11:25:57.532Z,2.13
2022-08-23T11:28:24.181Z,2.65
2022-08-23T11:30:57.811Z,2.00
2022-08-23T11:33:42.454Z,2.20
2022-08-23T11:36:09.201Z,3.17
2022-08-23T11:38:47.791Z,1.90
2022-08-23T11:41:20.646Z,1.98
2022-08-23T11:44:04.959Z,1.90
2022-08-23T11:46:36.071Z,1.90
2022-08-23T11:49:20.864Z,2.70
2022-08-23T11:52:12.086Z,2.80
2022-08-23T11:54:54.518Z,2.22
2022-08-23T11:57:48.586Z,2.67
2022-08-23T12:00:29.155Z,2.20
2022-08-23T12:03:22.088Z,1.77
2022-08-23T12:05:52.080Z,1.70
2022-08-23T12:08:23.142Z,1.60
2022-08-23T12:10:51.332Z,1.67
2022-08-23T12:13:21.067Z,1.63
2022-08-23T12:16:16.585Z,1.60
2022-08-23T12:18:53.536Z,1.50
2022-08-23T12:21:47.734Z,1.80
2022-08-23T12:24:32.343Z,1.50
2022-08-23T12:27:26.847Z,1.20
2022-08-23T12:30:04.242Z,1.60
2022-08-23T12:32:54.614Z,1.65
2022-08-23T12:35:33.682Z,1.70
2022-08-23T12:38:24.572Z,1.67
2022-08-23T12:40:54.876Z,1.15
2022-08-23T12:43:27.897Z,1.00
2022-08-23T12:45:57.981Z,1.48
2022-08-23T12:48:33.461Z,1.35
2022-08-23T12:51:08.093Z,1.70
2022-08-23T12:53:41.466Z,1.90
2022-08-23T12:56:31.747Z,1.70
2022-08-23T12:59:05.071Z,1.92
2022-08-23T13:01:37.276Z,2.00
2022-08-23T13:04:11.040Z,1.80
2022-08-23T13:06:45.385Z,1.60
2022-08-23T13:09:22.262Z,1.98
2022-08-23T13:11:49.291Z,2.13
2022-08-23T13:14:25.389Z,1.33
2022-08-23T13:16:52.771Z,1.90
2022-08-23T13:19:30.809Z,1.92
2022-08-23T13:22:22.530Z,1.73
2022-08-23T13:25:29.333Z,1.60
2022-08-23T13:28:19.599Z,1.85
2022-08-23T13:31:02.279Z,1.33
2022-08-23T13:33:29.446Z,1.83
2022-08-23T13:36:21.367Z,2.08
2022-08-23T13:38:48.944Z,2.33
2022-08-23T13:41:38.445Z,2.95
2022-08-23T13:44:08.649Z,1.63
2022-08-23T13:46:45.261Z,1.60
2022-08-23T13:49:20.247Z,1.70
2022-08-23T13:52:18.365Z,1.88
2022-08-23T13:54:46.075Z,1.88
2022-08-23T13:57:20.169Z,2.55
2022-08-23T13:59:53.622Z,1.90
2022-08-23T14:02:22.598Z,1.88
2022-08-23T14:04:49.438Z,2.28
2022-08-23T14:07:16.732Z,2.10
2022-08-23T14:09:44.190Z,1.85
2022-08-23T14:12:21.771Z,2.40
2022-08-23T14:14:49.184Z,1.90
2022-08-23T14:17:17.136Z,1.80
2022-08-23T14:22:34.478Z,1.42
2022-08-23T14:25:01.285Z,2.00
2022-08-23T14:27:28.161Z,1.73
2022-08-23T14:29:55.060Z,1.90
2022-08-23T14:32:21.969Z,1.95
2022-08-23T14:34:49.361Z,1.90
2022-08-23T14:40:04.293Z,1.95
2022-08-23T14:42:31.939Z,2.17
2022-08-23T14:44:58.651Z,1.85
2022-08-23T14:47:25.618Z,1.60
2022-08-23T14:49:54.064Z,1.75
2022-08-23T14:52:21.600Z,1.67
2022-08-23T14:54:49.553Z,1.70
2022-08-23T14:57:16.772Z,2.40
2022-08-23T14:59:43.809Z,2.10
2022-08-23T15:02:13.587Z,1.70
2022-08-23T15:04:41.796Z,2.30
2022-08-23T15:07:23.748Z,1.92
2022-08-23T15:09:54.534Z,1.55
2022-08-23T15:15:21.949Z,1.77
2022-08-23T15:17:55.101Z,1.75
2022-08-23T15:22:55.065Z,2.10
2022-08-23T15:25:25.448Z,1.25
2022-08-23T15:27:52.450Z,1.88
2022-08-23T15:30:19.251Z,1.60
2022-08-23T15:32:52.647Z,1.80
2022-08-23T15:35:24.770Z,1.90
2022-08-23T15:37:53.662Z,1.75
2022-08-23T15:40:21.114Z,1.73
2022-08-23T15:42:47.889Z,1.90
2022-08-23T15:45:15.530Z,1.67
2022-08-23T15:47:54.352Z,1.60
2022-08-23T15:50:25.316Z,1.58
2022-08-23T15:52:52.533Z,1.98
2022-08-23T15:55:20.105Z,1.45
2022-08-23T15:57:53.483Z,1.70
2022-08-23T16:00:23.222Z,1.50
2022-08-23T16:03:18.437Z,1.77
2022-08-23T16:05:39.399Z,2.20
2022-08-23T16:08:07.745Z,2.25
2022-08-23T16:10:35.400Z,1.90
2022-08-23T16:13:03.672Z,1.75
2022-08-23T16:15:30.570Z,1.80
2022-08-23T16:17:57.469Z,1.70
2022-08-23T16:20:24.346Z,1.70
2022-08-23T16:22:51.051Z,1.73
2022-08-23T16:25:17.934Z,1.80
2022-08-23T16:27:44.677Z,4.57
2022-08-23T16:30:13.089Z,2.10
2022-08-23T16:32:40.064Z,2.08
2022-08-23T16:35:07.770Z,1.88
2022-08-23T16:37:36.218Z,2.08
2022-08-23T16:40:05.930Z,2.20
2022-08-23T16:42:32.707Z,1.52
2022-08-23T16:44:59.419Z,1.80
2022-08-23T16:47:26.467Z,1.70
2022-08-23T16:49:53.408Z,1.65
2022-08-23T16:52:20.585Z,1.75
2022-08-23T16:54:55.442Z,1.90
2022-08-23T16:57:22.288Z,1.80
2022-08-23T16:59:49.834Z,1.77
2022-08-23T17:02:37.212Z,1.80
2022-08-23T17:05:07.478Z,2.03
2022-08-23T17:07:34.369Z,1.80
2022-08-23T17:10:01.221Z,1.48
2022-08-23T17:12:28.814Z,1.65
2022-08-23T17:14:57.514Z,1.52
2022-08-23T17:17:24.679Z,1.70
2022-08-23T17:19:51.589Z,1.92
2022-08-23T17:22:18.557Z,1.73
2022-08-23T17:24:45.268Z,1.70
2022-08-23T17:27:19.120Z,2.00
2022-08-23T17:29:46.415Z,1.88
2022-08-23T17:32:13.317Z,1.25
2022-08-23T17:34:39.953Z,1.77
2022-08-23T17:37:18.845Z,1.50
2022-08-23T17:39:45.760Z,1.50
2022-08-23T17:42:13.330Z,1.40
2022-08-23T17:44:40.638Z,1.20
2022-08-23T17:47:12.295Z,1.58
2022-08-23T17:49:39.006Z,1.60
2022-08-23T17:52:06.309Z,1.58
2022-08-23T17:54:33.441Z,1.80
2022-08-23T17:57:00.889Z,1.80
2022-08-23T17:59:27.756Z,1.70
2022-08-23T18:01:54.557Z,2.05
2022-08-23T18:04:21.388Z,1.42
2022-08-23T18:06:48.259Z,1.98
2022-08-23T18:09:15.743Z,1.30
2022-08-23T18:11:42.550Z,1.40
2022-08-23T18:14:09.875Z,1.90
2022-08-23T18:16:36.909Z,1.77
2022-08-23T18:19:07.270Z,2.58
2022-08-23T18:21:39.947Z,2.00
2022-08-23T18:24:07.739Z,1.50
2022-08-23T18:26:54.725Z,1.65
2022-08-23T18:29:22.139Z,1.95
2022-08-23T18:31:49.071Z,1.33
2022-08-23T18:34:17.019Z,1.30
2022-08-23T18:36:44.949Z,1.27
2022-08-23T18:39:14.382Z,1.60
2022-08-23T18:41:42.009Z,1.45
2022-08-23T18:44:10.074Z,1.48
2022-08-23T18:46:39.325Z,1.67
2022-08-23T18:49:07.341Z,1.33
2022-08-23T18:51:34.150Z,1.40
2022-08-23T18:54:00.839Z,1.10
2022-08-23T18:56:27.987Z,1.50
2022-08-23T18:58:54.669Z,1.10
2022-08-23T19:01:27.581Z,1.52
2022-08-23T19:06:22.741Z,1.38
2022-08-23T19:08:49.975Z,1.10
2022-08-23T19:11:16.700Z,1.20
2022-08-23T19:13:43.483Z,1.40
2022-08-23T19:16:15.583Z,1.35
2022-08-23T19:18:45.119Z,1.43
2022-08-23T19:21:14.080Z,1.50
2022-08-23T19:23:41.402Z,1.20
2022-08-23T19:26:17.908Z,1.13
2022-08-23T19:28:44.556Z,1.10
2022-08-23T19:31:11.678Z,1.35
2022-08-23T19:33:38.609Z,1.40
2022-08-23T19:36:05.867Z,1.70
2022-08-23T19:38:33.486Z,1.40
2022-08-23T19:41:02.371Z,1.40
2022-08-23T19:43:29.438Z,2.88
2022-08-23T19:45:58.635Z,2.50
2022-08-23T19:48:25.454Z,2.33
2022-08-23T19:50:52.400Z,3.20
2022-08-23T19:53:19.255Z,2.80
2022-08-23T19:55:46.041Z,2.40
2022-08-23T19:58:14.528Z,2.15
2022-08-23T20:00:42.984Z,2.60
2022-08-23T20:03:10.059Z,2.30
2022-08-23T20:05:36.945Z,2.15
2022-08-23T20:08:04.060Z,1.52
2022-08-23T20:10:30.762Z,1.70
2022-08-23T20:12:57.526Z,1.90
2022-08-23T20:15:24.371Z,2.35
2022-08-23T20:17:54.877Z,1.70
2022-08-23T20:20:21.661Z,1.90
2022-08-23T20:23:06.819Z,1.50
2022-08-23T20:25:33.734Z,1.50
2022-08-23T20:28:00.703Z,1.80
2022-08-23T20:30:27.408Z,1.65
2022-08-23T20:32:57.292Z,1.40
2022-08-23T20:35:24.342Z,1.60
2022-08-23T20:37:52.083Z,1.40
2022-08-23T20:40:19.905Z,1.60
2022-08-23T20:42:46.962Z,1.67
2022-08-23T20:45:13.671Z,2.40
2022-08-23T20:47:41.336Z,2.35
2022-08-23T20:50:08.551Z,2.10
2022-08-23T20:52:35.303Z,1.80
2022-08-23T20:55:02.729Z,2.20
2022-08-23T20:57:37.311Z,2.00
2022-08-23T21:00:07.287Z,2.28
2022-08-23T21:02:34.135Z,2.40
2022-08-23T21:05:01.179Z,2.13
2022-08-23T21:07:31.671Z,2.08
2022-08-23T21:09:58.498Z,2.30
2022-08-23T21:12:25.214Z,2.78
2022-08-23T21:14:52.106Z,2.90
2022-08-23T21:17:18.769Z,2.85
2022-08-23T21:19:45.506Z,2.78
2022-08-23T21:22:12.143Z,2.45
2022-08-23T21:24:39.546Z,2.25
2022-08-23T21:27:06.512Z,2.40
2022-08-23T21:29:36.383Z,2.58
2022-08-23T21:32:03.568Z,2.38
2022-08-23T21:34:33.347Z,2.75
2022-08-23T21:37:00.222Z,2.88
2022-08-23T21:39:26.990Z,4.22
2022-08-23T21:41:57.965Z,2.10
2022-08-23T21:44:25.859Z,2.20
2022-08-23T21:46:52.876Z,2.72
2022-08-23T21:49:21.092Z,2.50
2022-08-23T21:51:49.174Z,2.65
2022-08-23T21:54:17.941Z,3.33
2022-08-23T21:56:46.188Z,2.85
2022-08-23T21:59:17.951Z,3.50
2022-08-23T22:01:45.853Z,3.55
2022-08-23T22:04:14.666Z,2.80
2022-08-23T22:06:44.105Z,3.33
2022-08-23T22:09:13.702Z,3.17
2022-08-23T22:11:42.989Z,2.85
2022-08-23T22:14:18.431Z,2.25
2022-08-23T22:16:45.341Z,2.50
2022-08-23T22:19:15.173Z,2.95
2022-08-23T22:21:46.052Z,2.90
2022-08-23T22:24:13.612Z,3.15
2022-08-23T22:26:55.481Z,2.95
2022-08-23T22:29:24.819Z,2.40
2022-08-23T22:31:51.746Z,3.13
2022-08-23T22:34:18.719Z,2.88
2022-08-23T22:36:48.152Z,2.50
2022-08-23T22:39:19.499Z,2.60
2022-08-23T22:41:46.197Z,2.30
2022-08-23T22:44:15.273Z,2.35
2022-08-23T22:46:44.277Z,1.73
2022-08-23T22:49:10.989Z,2.60
2022-08-23T22:51:38.166Z,2.40
2022-08-23T22:54:09.926Z,2.00
2022-08-23T22:56:46.058Z,2.55
2022-08-23T22:59:15.302Z,2.63
2022-08-23T23:01:47.687Z,1.73
2022-08-23T23:04:19.668Z,1.90
2022-08-23T23:06:52.787Z,2.22
2022-08-23T23:09:19.651Z,2.67
2022-08-23T23:11:48.854Z,2.45
2022-08-23T23:14:17.593Z,2.38
2022-08-23T23:16:50.948Z,2.78
2022-08-23T23:19:39.084Z,2.88
2022-08-23T23:22:07.781Z,3.53
2022-08-23T23:24:37.819Z,2.53
2022-08-23T23:27:08.532Z,2.00
2022-08-23T23:29:35.754Z,2.78
2022-08-23T23:32:02.983Z,2.80
2022-08-23T23:34:29.815Z,3.00
2022-08-23T23:36:59.939Z,2.85
2022-08-23T23:39:27.935Z,2.67
2022-08-23T23:41:58.145Z,2.83
2022-08-23T23:44:31.447Z,3.15
2022-08-23T23:46:59.620Z,2.40
2022-08-23T23:49:32.440Z,2.17
2022-08-23T23:52:03.713Z,1.80
2022-08-23T23:54:37.547Z,2.40
2022-08-23T23:57:06.503Z,2.00
2022-08-23T23:59:35.313Z,2.33
